Thunderstorms From: 20-05-2018 15:00 Until: 21-05-2018 15:00 warning for: Thunderstorms Level: Yellow info button

Although rather usual in this region, locally or potentially dangerous phenomena are expected. (such as local winds, summer thunderstorms, rising streams or high waves) Be aware and pay attention to the latest weather updates, especially if you carry out activities exposed to weather or close to a stream or shoreline. 


Meteo18 Weather Cam more information Meteo18 Weather Cam


warning for Thunderstorms more information blitzortung!


Rain radar more information rain snow radar


Visit our other weather sites:

Template documentation
and downloads

And another site



Weather Underground History page Text

Daily Summary for May 27, 2017 Units:  English    Metric   Both
« Previous Day
Next Day »
Daily Weekly Monthly Yearly Custom
  High: Low: Average:
Temperature: TemperatureC °F 16.2 °F 23.7 °F
Dew Point: DewpointC °F 14.2 °F 16.7 °F
Humidity: Humidity % 37 % 67 %
Wind Speed: WindSpeedKMH mph 0.0 mph 2.9 mph
Wind Gust: WindSpeedGustKMH mph - -
Wind:- - South
Pressure: PressurehPa in 1014.8 in -
Precipitation: 0.0 in    
Historical Graphs
 
 
Tabular Data for May 27, 2017
Time Temperature Dew Point Pressure Wind Wind Speed Wind Gust Humidity Rainfall Rate (Hourly)
TemperatureC °F DewpointC °F PressurehPa in Calm     Humidity % HourlyPrecipMM in
00:02 19.4 °F 15.7 °F 1014.8 in WNW 1.6 mph 3.2 mph 79 % 0.0 in
00:07 19.4 °F 15.7 °F 1015.1 in WNW 3.2 mph 3.2 mph 79 % 0.0 in
00:12 19.4 °F 15.7 °F 1014.8 in Calm   3.2 mph 79 % 0.0 in
00:17 19.5 °F 15.6 °F 1014.8 in Calm   3.2 mph 78 % 0.0 in
00:22 19.6 °F 15.7 °F 1014.8 in Calm   3.2 mph 78 % 0.0 in
00:32 19.3 °F 15.6 °F 1014.8 in Calm   3.2 mph 79 % 0.0 in
00:42 19.0 °F 15.7 °F 1015.1 in WNW 3.2 mph 3.2 mph 81 % 0.0 in
00:52 18.6 °F 15.5 °F 1015.1 in WNW 1.6 mph 3.2 mph 82 % 0.0 in
00:57 18.9 °F 15.6 °F 1015.1 in WNW 3.2 mph 3.2 mph 81 % 0.0 in
01:02 19.1 °F 15.8 °F 1015.1 in Calm   3.2 mph 81 % 0.0 in
01:12 18.7 °F 15.8 °F 1015.1 in Calm   3.2 mph 83 % 0.0 in
01:17 19.0 °F 15.9 °F 1015.1 in Calm   3.2 mph 82 % 0.0 in
01:22 19.3 °F 15.8 °F 1015.1 in NNW 3.2 mph 3.2 mph 80 % 0.0 in
01:32 18.8 °F 15.5 °F 1015.5 in WNW 3.2 mph 3.2 mph 81 % 0.0 in
01:37 18.6 °F 15.5 °F 1015.5 in WNW 4.8 mph 4.8 mph 82 % 0.0 in
01:42 18.4 °F 15.5 °F 1015.5 in WNW 1.6 mph 4.8 mph 83 % 0.0 in
01:47 18.3 °F 15.4 °F 1015.5 in WNW 3.2 mph 4.8 mph 83 % 0.0 in
01:52 18.2 °F 15.3 °F 1015.5 in WNW 3.2 mph 4.8 mph 83 % 0.0 in
01:57 18.4 °F 15.6 °F 1015.5 in Calm   4.8 mph 84 % 0.0 in
02:02 18.6 °F 15.7 °F 1015.5 in Calm   4.8 mph 83 % 0.0 in
02:07 18.4 °F 15.3 °F 1015.5 in WNW 3.2 mph 3.2 mph 82 % 0.0 in
02:12 18.1 °F 15.4 °F 1015.8 in West 1.6 mph 3.2 mph 84 % 0.0 in
02:22 18.1 °F 15.4 °F 1015.8 in WNW 3.2 mph 3.2 mph 84 % 0.0 in
02:32 17.8 °F 15.2 °F 1015.8 in WNW 1.6 mph 3.2 mph 85 % 0.0 in
02:37 17.7 °F 15.1 °F 1015.8 in Calm   3.2 mph 85 % 0.0 in
02:42 17.8 °F 15.4 °F 1016.1 in Calm   3.2 mph 86 % 0.0 in
02:52 17.8 °F 15.2 °F 1016.1 in Calm   3.2 mph 85 % 0.0 in
03:02 17.9 °F 15.5 °F 1016.1 in Calm     86 % 0.0 in
03:12 18.8 °F 15.9 °F 1016.1 in Calm     83 % 0.0 in
03:17 19.2 °F 15.9 °F 1016.1 in WSW 4.8 mph 4.8 mph 81 % 0.0 in
03:22 19.6 °F 16.1 °F 1016.1 in SW 4.8 mph 4.8 mph 80 % 0.0 in
03:32 19.8 °F 16.1 °F 1016.5 in Calm   8.0 mph 79 % 0.0 in
03:52 18.6 °F 15.7 °F 1016.5 in Calm   3.2 mph 83 % 0.0 in
03:57 18.4 °F 15.5 °F 1016.5 in Calm   1.6 mph 83 % 0.0 in
04:02 18.3 °F 15.5 °F 1016.5 in Calm   1.6 mph 84 % 0.0 in
04:12 18.0 °F 15.4 °F 1016.5 in East 1.6 mph   85 % 0.0 in
04:17 17.9 °F 15.5 °F 1016.1 in East 1.6 mph 3.2 mph 86 % 0.0 in
04:22 18.1 °F 15.7 °F 1016.1 in ENE 1.6 mph 3.2 mph 86 % 0.0 in
04:32 17.8 °F 15.2 °F 1016.5 in Calm   3.2 mph 85 % 0.0 in
04:42 17.3 °F 15.1 °F 1016.1 in Calm   3.2 mph 87 % 0.0 in
04:47 17.0 °F 15.0 °F 1016.5 in Calm   1.6 mph 88 % 0.0 in
04:52 17.0 °F 15.0 °F 1016.5 in Calm   1.6 mph 88 % 0.0 in
04:57 17.0 °F 15.2 °F 1016.1 in Calm   1.6 mph 89 % 0.0 in
05:02 17.2 °F 15.4 °F 1016.5 in Calm   1.6 mph 89 % 0.0 in
05:12 16.8 °F 14.8 °F 1016.5 in ENE 3.2 mph 4.8 mph 88 % 0.0 in
05:22 16.2 °F 14.6 °F 1016.5 in ENE 6.4 mph 8.0 mph 90 % 0.0 in
05:32 17.4 °F 15.7 °F 1016.5 in Calm   8.0 mph 90 % 0.0 in
05:37 18.1 °F 15.7 °F 1016.5 in SSW 4.8 mph 8.0 mph 86 % 0.0 in
05:42 18.7 °F 15.6 °F 1016.5 in SW 3.2 mph 8.0 mph 82 % 0.0 in
05:52 19.0 °F 15.7 °F 1016.1 in SW 3.2 mph 14.5 mph 81 % 0.0 in
06:02 19.0 °F 15.5 °F 1016.1 in SSW 3.2 mph 9.7 mph 80 % 0.0 in
06:12 18.3 °F 15.0 °F 1016.5 in Calm   8.0 mph 81 % 0.0 in
06:17 17.8 °F 14.9 °F 1016.5 in ESE 1.6 mph 8.0 mph 83 % 0.0 in
06:22 17.3 °F 14.8 °F 1016.5 in Calm   3.2 mph 85 % 0.0 in
06:32 17.2 °F 15.0 °F 1016.8 in SE 1.6 mph 3.2 mph 87 % 0.0 in
06:37 17.2 °F 15.0 °F 1016.8 in SSE 1.6 mph 4.8 mph 87 % 0.0 in
06:42 17.2 °F 15.0 °F 1016.8 in East 3.2 mph 4.8 mph 87 % 0.0 in
06:52 17.7 °F 15.3 °F 1016.8 in SE 3.2 mph 4.8 mph 86 % 0.0 in
07:02 17.8 °F 15.4 °F 1016.5 in Calm   4.8 mph 86 % 0.0 in
07:07 17.9 °F 15.5 °F 1016.5 in South 1.6 mph 4.8 mph 86 % 0.0 in
07:17 18.4 °F 16.0 °F 1016.5 in Calm   4.8 mph 86 % 0.0 in
07:22 18.7 °F 15.9 °F 1016.5 in Calm   3.2 mph 84 % 0.0 in
07:32 18.9 °F 16.1 °F 1016.8 in Calm   6.4 mph 84 % 0.0 in
07:42 19.2 °F 16.2 °F 1017.2 in SSE 3.2 mph 6.4 mph 83 % 0.0 in
07:47 19.3 °F 16.3 °F 1017.2 in SW 1.6 mph 6.4 mph 83 % 0.0 in
07:52 19.4 °F 16.4 °F 1017.2 in SSW 1.6 mph 6.4 mph 83 % 0.0 in
08:02 19.6 °F 16.4 °F 1017.2 in Calm   9.7 mph 82 % 0.0 in
08:12 20.1 °F 16.7 °F 1017.5 in Calm   6.4 mph 81 % 0.0 in
08:17 20.1 °F 16.5 °F 1017.5 in SSW 3.2 mph 6.4 mph 80 % 0.0 in
08:22 20.1 °F 16.7 °F 1017.5 in SE 1.6 mph 9.7 mph 81 % 0.0 in
08:32 20.5 °F 16.9 °F 1017.8 in SW 9.7 mph 9.7 mph 80 % 0.0 in
08:42 20.8 °F 17.0 °F 1017.5 in SSW 3.2 mph 12.9 mph 79 % 0.0 in
08:52 21.2 °F 17.0 °F 1017.8 in SSW 3.2 mph 12.9 mph 77 % 0.0 in
08:57 21.4 °F 17.0 °F 1017.8 in SW 3.2 mph 12.9 mph 76 % 0.0 in
09:12 21.8 °F 16.7 °F 1017.8 in SSW 9.7 mph 14.5 mph 73 % 0.0 in
09:22 22.1 °F 17.0 °F 1017.8 in WSW 6.4 mph 14.5 mph 73 % 0.0 in
09:32 22.3 °F 17.0 °F 1017.8 in SW 12.9 mph 14.5 mph 72 % 0.0 in
09:42 22.4 °F 16.7 °F 1017.8 in SW 8.0 mph 14.5 mph 70 % 0.0 in
09:47 22.5 °F 16.8 °F 1017.8 in SSW 3.2 mph 14.5 mph 70 % 0.0 in
09:52 22.8 °F 17.0 °F 1017.8 in SW 11.3 mph 16.1 mph 70 % 0.0 in
10:02 23.1 °F 17.6 °F 1017.8 in SSW 8.0 mph 12.9 mph 71 % 0.0 in
10:07 23.3 °F 17.5 °F 1017.8 in WSW 9.7 mph 12.9 mph 70 % 0.0 in
10:12 23.4 °F 17.2 °F 1017.8 in WSW 8.0 mph 11.3 mph 68 % 0.0 in
10:17 23.4 °F 17.2 °F 1017.8 in SW 8.0 mph 11.3 mph 68 % 0.0 in
10:22 23.6 °F 17.1 °F 1018.2 in South 3.2 mph 12.9 mph 67 % 0.0 in
10:32 23.9 °F 16.9 °F 1018.2 in SW 14.5 mph 14.5 mph 65 % 0.0 in
10:37 23.9 °F 16.9 °F 1018.2 in WSW 8.0 mph 14.5 mph 65 % 0.0 in
10:42 24.0 °F 17.0 °F 1018.2 in SW 8.0 mph 19.3 mph 65 % 0.0 in
10:47 24.2 °F 17.2 °F 1018.2 in SE 8.0 mph 19.3 mph 65 % 0.0 in
10:52 24.4 °F 16.9 °F 1018.2 in SW 9.7 mph 12.9 mph 63 % 0.0 in
10:57 24.6 °F 17.3 °F 1018.2 in South 6.4 mph 12.9 mph 64 % 0.0 in
11:02 24.7 °F 17.4 °F 1018.2 in WSW 8.0 mph 12.9 mph 64 % 0.0 in
11:12 24.8 °F 17.5 °F 1018.2 in WSW 6.4 mph 12.9 mph 64 % 0.0 in
11:17 25.1 °F 17.3 °F 1018.2 in SW 4.8 mph 12.9 mph 62 % 0.0 in
11:22 25.3 °F 17.2 °F 1018.2 in SSW 4.8 mph 12.9 mph 61 % 0.0 in
11:32 25.3 °F 17.2 °F 1018.2 in WSW 11.3 mph 12.9 mph 61 % 0.0 in
11:42 25.7 °F 17.1 °F 1018.2 in WSW 4.8 mph 12.9 mph 59 % 0.0 in
11:52 25.9 °F 17.3 °F 1018.2 in SSW 17.7 mph 17.7 mph 59 % 0.0 in
11:57 26.0 °F 17.1 °F 1018.5 in SSW 8.0 mph 11.3 mph 58 % 0.0 in
12:02 26.2 °F 17.6 °F 1018.5 in SW 14.5 mph 20.9 mph 59 % 0.0 in
12:12 26.3 °F 17.4 °F 1018.5 in South 1.6 mph 19.3 mph 58 % 0.0 in
12:17 26.7 °F 17.5 °F 1018.5 in SSW 3.2 mph 19.3 mph 57 % 0.0 in
12:22 26.6 °F 17.4 °F 1018.5 in SW 8.0 mph 14.5 mph 57 % 0.0 in
12:32 26.4 °F 17.2 °F 1018.5 in WSW 12.9 mph 14.5 mph 57 % 0.0 in
12:37 26.4 °F 17.5 °F 1018.5 in South 8.0 mph 16.1 mph 58 % 0.0 in
12:42 26.7 °F 17.5 °F 1018.5 in SSE 1.6 mph 16.1 mph 57 % 0.0 in
12:52 26.9 °F 17.1 °F 1018.5 in SSE 3.2 mph 14.5 mph 55 % 0.0 in
13:02 27.3 °F 17.5 °F 1018.2 in West 6.4 mph 14.5 mph 55 % 0.0 in
13:12 27.5 °F 17.7 °F 1018.2 in SW 9.7 mph 14.5 mph 55 % 0.0 in
13:17 27.4 °F 17.8 °F 1018.2 in South 8.0 mph 14.5 mph 56 % 0.0 in
13:22 27.7 °F 17.8 °F 1018.2 in SSW 3.2 mph 17.7 mph 55 % 0.0 in
13:32 27.7 °F 17.2 °F 1018.2 in SE 1.6 mph 17.7 mph 53 % 0.0 in
13:37 27.9 °F 17.1 °F 1018.2 in South 1.6 mph 17.7 mph 52 % 0.0 in
13:42 28.1 °F 17.3 °F 1018.2 in ESE 9.7 mph 12.9 mph 52 % 0.0 in
13:52 28.2 °F 17.7 °F 1018.2 in SE 4.8 mph 14.5 mph 53 % 0.0 in
14:02 28.4 °F 17.3 °F 1017.8 in SSW 3.2 mph 14.5 mph 51 % 0.0 in
14:12 28.7 °F 17.6 °F 1017.8 in South 1.6 mph 12.9 mph 51 % 0.0 in
14:17 29.0 °F 17.8 °F 1017.8 in SW 1.6 mph 12.9 mph 51 % 0.0 in
14:22 29.0 °F 17.5 °F 1017.8 in SE 3.2 mph 11.3 mph 50 % 0.0 in
14:32 28.8 °F 17.7 °F 1017.8 in SW 6.4 mph 14.5 mph 51 % 0.0 in
14:42 28.8 °F 17.0 °F 1017.5 in SW 4.8 mph 14.5 mph 49 % 0.0 in
14:47 29.1 °F 17.3 °F 1017.5 in SSE 8.0 mph 14.5 mph 49 % 0.0 in
14:52 28.8 °F 17.0 °F 1017.5 in South 3.2 mph 9.7 mph 49 % 0.0 in
14:57 28.8 °F 17.0 °F 1017.5 in East 4.8 mph 12.9 mph 49 % 0.0 in
15:02 29.1 °F 17.3 °F 1017.5 in SSE 3.2 mph 12.9 mph 49 % 0.0 in
15:12 29.4 °F 17.9 °F 1017.5 in ENE 4.8 mph 12.9 mph 50 % 0.0 in
15:17 29.3 °F 17.8 °F 1017.5 in East 8.0 mph 9.7 mph 50 % 0.0 in
15:22 28.9 °F 17.4 °F 1017.5 in East 3.2 mph 9.7 mph 50 % 0.0 in
15:32 29.2 °F 17.4 °F 1017.5 in Calm   9.7 mph 49 % 0.0 in
15:42 29.4 °F 17.2 °F 1017.5 in East 3.2 mph 9.7 mph 48 % 0.0 in
15:47 29.5 °F 16.7 °F 1017.5 in ESE 4.8 mph 9.7 mph 46 % 0.0 in
15:52 29.5 °F 16.3 °F 1017.5 in Calm   8.0 mph 45 % 0.0 in
16:02 29.6 °F 17.1 °F 1017.5 in ENE 1.6 mph 12.9 mph 47 % 0.0 in
16:12 30.0 °F 17.1 °F 1017.5 in ENE 3.2 mph 12.9 mph 46 % 0.0 in
16:17 29.9 °F 16.0 °F 1017.5 in East 8.0 mph 8.0 mph 43 % 0.0 in
16:27 30.0 °F 14.9 °F 1017.2 in SW 1.6 mph 12.9 mph 40 % 0.0 in
16:32 30.5 °F 16.5 °F 1017.2 in South 1.6 mph 12.9 mph 43 % 0.0 in
16:37 30.6 °F 16.6 °F 1017.2 in SSE 3.2 mph 12.9 mph 43 % 0.0 in
16:42 30.6 °F 17.0 °F 1017.2 in ENE 6.4 mph 12.9 mph 44 % 0.0 in
16:47 30.7 °F 15.5 °F 1017.2 in SE 1.6 mph 12.9 mph 40 % 0.0 in
16:52 30.7 °F 15.5 °F 1017.2 in ESE 1.6 mph 12.9 mph 40 % 0.0 in
16:57 30.8 °F 15.2 °F 1017.2 in South 6.4 mph 12.9 mph 39 % 0.0 in
17:02 30.9 °F 16.1 °F 1017.2 in East 6.4 mph 12.9 mph 41 % 0.0 in
17:12 30.6 °F 15.1 °F 1017.2 in Calm   12.9 mph 39 % 0.0 in
17:17 30.8 °F 16.0 °F 1017.2 in East 9.7 mph 11.3 mph 41 % 0.0 in
17:27 30.8 °F 14.8 °F 1017.2 in SSE 3.2 mph 11.3 mph 38 % 0.0 in
17:32 30.6 °F 15.1 °F 1017.2 in ESE 3.2 mph 11.3 mph 39 % 0.0 in
17:42 30.6 °F 14.2 °F 1017.2 in SSW 8.0 mph 11.3 mph 37 % 0.0 in
17:47 30.7 °F 14.8 °F 1017.2 in ESE 3.2 mph 12.9 mph 38 % 0.0 in
17:52 30.8 °F 15.6 °F 1017.2 in South 4.8 mph 12.9 mph 40 % 0.0 in
17:57 30.8 °F 14.8 °F 1017.2 in SSE 3.2 mph 8.0 mph 38 % 0.0 in
18:02 30.8 °F 15.6 °F 1017.2 in SSW 3.2 mph 8.0 mph 40 % 0.0 in
18:12 30.5 °F 14.2 °F 1017.2 in SE 4.8 mph 8.0 mph 37 % 0.0 in
18:17 30.4 °F 15.3 °F 1017.2 in Calm   8.0 mph 40 % 0.0 in
18:22 30.5 °F 15.4 °F 1017.2 in Calm   8.0 mph 40 % 0.0 in
18:32 30.4 °F 15.3 °F 1016.8 in Calm   6.4 mph 40 % 0.0 in
18:42 30.3 °F 15.2 °F 1016.8 in SSW 3.2 mph 4.8 mph 40 % 0.0 in
18:47 30.2 °F 15.9 °F 1016.8 in Calm   4.8 mph 42 % 0.0 in
18:52 30.2 °F 15.5 °F 1016.8 in SSW 1.6 mph 8.0 mph 41 % 0.0 in
19:02 29.9 °F 16.7 °F 1016.8 in SE 1.6 mph 8.0 mph 45 % 0.0 in
19:12 30.0 °F 16.8 °F 1016.8 in Calm   8.0 mph 45 % 0.0 in
19:22 30.1 °F 16.5 °F 1016.8 in ESE 1.6 mph 4.8 mph 44 % 0.0 in
19:27 29.9 °F 16.3 °F 1016.8 in Calm   3.2 mph 44 % 0.0 in
19:32 29.9 °F 16.3 °F 1016.8 in Calm   3.2 mph 44 % 0.0 in
19:37 29.6 °F 16.8 °F 1016.8 in Calm   3.2 mph 46 % 0.0 in
19:42 29.4 °F 18.5 °F 1016.8 in Calm   3.2 mph 52 % 0.0 in
19:47 29.3 °F 19.9 °F 1017.2 in Calm   3.2 mph 57 % 0.0 in
19:52 28.9 °F 19.5 °F 1017.2 in Calm   3.2 mph 57 % 0.0 in
19:57 28.7 °F 19.6 °F 1017.2 in Calm   3.2 mph 58 % 0.0 in
20:02 28.4 °F 19.1 °F 1017.2 in Calm   1.6 mph 57 % 0.0 in
20:12 28.1 °F 19.1 °F 1017.2 in Calm   1.6 mph 58 % 0.0 in
20:17 27.8 °F 19.3 °F 1017.2 in Calm     60 % 0.0 in
20:22 27.7 °F 19.2 °F 1017.2 in Calm   3.2 mph 60 % 0.0 in
20:27 27.5 °F 19.0 °F 1017.2 in Calm   3.2 mph 60 % 0.0 in
20:32 27.3 °F 19.1 °F 1017.2 in Calm   3.2 mph 61 % 0.0 in
20:37 27.2 °F 19.5 °F 1017.2 in Calm   1.6 mph 63 % 0.0 in
20:42 27.2 °F 20.3 °F 1017.5 in Calm     66 % 0.0 in
20:52 26.2 °F 19.1 °F 1017.5 in Calm     65 % 0.0 in
20:57 25.9 °F 18.8 °F 1017.5 in Calm     65 % 0.0 in
21:02 25.6 °F 18.5 °F 1017.5 in Calm     65 % 0.0 in
21:12 25.3 °F 18.5 °F 1017.5 in Calm     66 % 0.0 in
21:17 25.1 °F 18.5 °F 1017.5 in Calm     67 % 0.0 in
21:27 24.6 °F 18.8 °F 1017.5 in Calm     70 % 0.0 in
21:32 24.4 °F 18.8 °F 1017.5 in Calm     71 % 0.0 in
21:42 24.2 °F 18.6 °F 1017.5 in Calm     71 % 0.0 in
21:47 24.0 °F 18.6 °F 1017.5 in Calm     72 % 0.0 in
21:52 23.9 °F 18.8 °F 1017.5 in Calm     73 % 0.0 in
21:57 23.8 °F 18.9 °F 1017.5 in Calm     74 % 0.0 in
22:02 23.6 °F 19.1 °F 1017.5 in Calm     76 % 0.0 in
22:12 23.3 °F 19.5 °F 1017.5 in NNE 3.2 mph   79 % 0.0 in
22:22 23.2 °F 19.1 °F 1017.5 in Calm   4.8 mph 78 % 0.0 in
22:27 22.8 °F 19.2 °F 1017.5 in Calm   4.8 mph 80 % 0.0 in
22:32 22.5 °F 18.7 °F 1017.5 in WNW 1.6 mph 4.8 mph 79 % 0.0 in
22:42 21.9 °F 18.5 °F 1017.5 in WNW 1.6 mph 3.2 mph 81 % 0.0 in
22:52 21.9 °F 18.5 °F 1017.5 in North 1.6 mph 3.2 mph 81 % 0.0 in
22:57 22.0 °F 18.6 °F 1017.5 in Calm   1.6 mph 81 % 0.0 in
23:02 22.2 °F 18.6 °F 1017.8 in NNW 1.6 mph 1.6 mph 80 % 0.0 in
23:12 21.9 °F 18.3 °F 1017.5 in Calm   1.6 mph 80 % 0.0 in
23:17 21.6 °F 18.2 °F 1017.5 in NNE 1.6 mph 1.6 mph 81 % 0.0 in
23:22 21.5 °F 18.5 °F 1017.5 in Calm   3.2 mph 83 % 0.0 in
23:32 21.1 °F 18.1 °F 1017.5 in Calm   3.2 mph 83 % 0.0 in
23:37 21.1 °F 17.9 °F 1017.8 in Calm   3.2 mph 82 % 0.0 in
23:42 20.9 °F 17.9 °F 1017.8 in Calm   3.2 mph 83 % 0.0 in
23:47 21.1 °F 17.9 °F 1017.5 in WNW 1.6 mph 3.2 mph 82 % 0.0 in
23:52 20.7 °F 17.7 °F 1017.8 in WNW 1.6 mph 1.6 mph 83 % 0.0 in
23:57 20.6 °F 18.0 °F 1017.5 in Calm   3.2 mph 85 % 0.0 in
Meteo18
Compliments of Weather Underground - 4 mb

Script developed by  Jim McMurry - jmcmurry@mwt.net Adapted for the template by  Wim van der Kuil - Leuven-Template.eu

You find our weather info also at:

European Weather Network

Weather Underground

Equipment we use:

Weather-station
Davis Vue

Weather-program
Meteobridge

Weather-server
Raspberry PI 2 B+

Provider
1 and 1

Davis Vue

Meteobridge

Raspberry PI 2 B+

1 and 1